Terminal Aerodrome Forecast
Issued by NWS

Home | Current Version | Previous Version | Text Only | Print | Product List | Glossary On
Versions: 1 2 3 4 5 6 7 8 9 10 11 12 13 14
000
FTUS45 KABQ 062300 RRA
TAFAEG
TAF
KAEG 062340Z 0700/0724 20014G22KT P6SM VCSH SCT070 BKN110
      TEMPO 0700/0702 VRB18G28KT BKN060
     FM070230 28007KT P6SM SCT080 SCT100
     FM070800 32006KT P6SM FEW070 SCT120
     FM071900 18015G24KT P6SM FEW090=

USA.gov is the U.S. government's official web portal to all federal, state and local government web resources and services.